Time;durP1;ratioP1;P1;durP2;ratioP2;P2;SDS_P1;SDS_P2;PMS_P1;PMS_P2;Temp;Humidity;BMP_temperature;BMP_pressure;BME280_temperature;BME280_humidity;BME280_pressure;Samples;Min_cycle;Max_cycle;Signal;HPM_P1;HPM_P2
2021/12/02 00:01:18;;;;;;;445.07;410.10;;;5.80;99.90;;;;;;5063233;28;20205;-81
2021/12/02 00:03:46;;;;;;;444.30;409.57;;;5.90;99.90;;;;;;5068790;28;20270;-80
2021/12/02 00:06:14;;;;;;;437.30;403.77;;;5.90;99.90;;;;;;5064473;28;20174;-79
2021/12/02 00:08:41;;;;;;;436.23;402.73;;;6.00;99.90;;;;;;5069799;28;20295;-81
2021/12/02 00:11:07;;;;;;;438.47;404.63;;;6.00;99.90;;;;;;5069096;28;20186;-81
2021/12/02 00:13:48;;;;;;;436.30;402.07;;;6.00;99.90;;;;;;5063874;28;20217;-81
2021/12/02 00:21:19;;;;;;;350.20;327.20;;;5.90;99.90;;;;;;5069016;28;20350;-80
2021/12/02 00:23:54;;;;;;;346.33;323.93;;;5.80;99.90;;;;;;5065484;28;20181;-82
2021/12/02 00:26:21;;;;;;;347.37;325.17;;;5.80;99.90;;;;;;5063782;28;20182;-80
2021/12/02 00:28:56;;;;;;;344.57;322.27;;;5.70;99.90;;;;;;5063124;28;20238;-81
2021/12/02 00:31:31;;;;;;;341.03;319.43;;;5.70;99.90;;;;;;5064703;28;20185;-81
2021/12/02 00:34:00;;;;;;;339.30;318.07;;;5.60;99.90;;;;;;5070772;28;20338;-79
2021/12/02 00:36:31;;;;;;;331.43;310.80;;;5.60;99.90;;;;;;5063662;28;20301;-81
2021/12/02 00:38:59;;;;;;;334.33;314.13;;;5.50;99.90;;;;;;5063918;28;20899;-80
2021/12/02 00:41:27;;;;;;;327.00;307.53;;;5.50;99.90;;;;;;5065118;28;20317;-81
2021/12/02 00:43:56;;;;;;;325.67;305.97;;;5.50;99.90;;;;;;5061612;28;20274;-81
2021/12/02 00:46:24;;;;;;;319.00;300.67;;;5.50;99.90;;;;;;5065542;28;20182;-80
2021/12/02 00:48:51;;;;;;;319.10;300.10;;;5.50;99.90;;;;;;5060263;28;20236;-81
2021/12/02 00:51:18;;;;;;;314.20;296.07;;;5.40;99.90;;;;;;5067096;28;20190;-81
2021/12/02 00:53:51;;;;;;;318.43;300.40;;;5.40;99.90;;;;;;5052086;28;20187;-81
2021/12/02 00:56:21;;;;;;;307.57;290.30;;;5.40;99.90;;;;;;5052838;28;20189;-81
2021/12/02 00:58:49;;;;;;;303.87;287.00;;;5.40;99.90;;;;;;5062817;28;20194;-80
2021/12/02 01:01:16;;;;;;;305.70;288.67;;;5.40;99.90;;;;;;5033552;28;20210;-82
2021/12/02 01:03:44;;;;;;;300.20;283.60;;;5.50;99.90;;;;;;5065671;28;20284;-80
2021/12/02 01:06:10;;;;;;;293.60;277.70;;;5.40;99.90;;;;;;5062288;28;20680;-82
2021/12/02 01:08:39;;;;;;;290.07;273.87;;;5.40;99.90;;;;;;5069614;28;20181;-80
2021/12/02 01:11:09;;;;;;;285.17;269.87;;;5.50;99.90;;;;;;5085795;28;20244;-80
2021/12/02 01:13:35;;;;;;;272.47;257.53;;;5.50;99.90;;;;;;5062847;28;20191;-81
2021/12/02 01:16:02;;;;;;;290.03;274.50;;;5.60;99.90;;;;;;5076157;28;20622;-81
2021/12/02 01:18:28;;;;;;;294.73;279.30;;;5.70;99.90;;;;;;5067801;28;20689;-80
2021/12/02 01:20:54;;;;;;;346.47;327.27;;;5.70;99.90;;;;;;5052252;28;20221;-80
2021/12/02 01:23:22;;;;;;;379.10;355.43;;;5.60;99.90;;;;;;5034857;28;20182;-81
2021/12/02 01:26:14;;;;;;;406.67;378.87;;;5.60;99.90;;;;;;5062271;28;20558;-81
2021/12/02 01:28:44;;;;;;;421.00;390.13;;;5.50;99.90;;;;;;5063956;28;20182;-80
2021/12/02 01:31:12;;;;;;;421.00;390.60;;;5.40;99.90;;;;;;5066651;28;20192;-81
2021/12/02 01:33:39;;;;;;;420.37;390.50;;;5.30;99.90;;;;;;5044728;28;20212;-81
2021/12/02 01:36:07;;;;;;;410.90;382.30;;;5.20;99.90;;;;;;5062360;28;20213;-80
2021/12/02 01:38:34;;;;;;;389.00;361.97;;;5.20;99.90;;;;;;5061231;28;20580;-79
2021/12/02 01:41:02;;;;;;;366.87;341.87;;;5.10;99.90;;;;;;5084055;28;20225;-81
2021/12/02 01:43:37;;;;;;;364.60;341.20;;;5.10;99.90;;;;;;5058974;28;20266;-80
2021/12/02 01:46:03;;;;;;;344.03;322.00;;;5.20;99.90;;;;;;5084880;28;20185;-81
2021/12/02 01:48:31;;;;;;;343.30;321.20;;;5.20;99.90;;;;;;5043625;28;20273;-81
2021/12/02 01:51:04;;;;;;;341.20;318.90;;;5.20;99.90;;;;;;5062087;28;20271;-81
2021/12/02 01:53:33;;;;;;;341.00;318.87;;;5.10;99.90;;;;;;5050117;28;20631;-82
2021/12/02 01:56:09;;;;;;;342.00;320.30;;;5.20;99.90;;;;;;5061385;28;20242;-80
2021/12/02 01:58:46;;;;;;;337.13;315.50;;;5.20;99.90;;;;;;5059151;28;20189;-80
2021/12/02 02:01:27;;;;;;;327.63;307.57;;;5.20;99.90;;;;;;5067158;28;20296;-81
2021/12/02 02:03:55;;;;;;;323.90;303.93;;;5.30;99.90;;;;;;5060350;28;20278;-80
2021/12/02 02:06:28;;;;;;;319.00;299.23;;;5.30;99.90;;;;;;5045340;28;20201;-80
2021/12/02 02:08:58;;;;;;;430.13;397.07;;;5.40;99.90;;;;;;5082053;28;20185;-81
2021/12/02 02:11:30;;;;;;;318.47;299.63;;;5.40;99.90;;;;;;5082294;28;20232;-81
2021/12/02 02:13:58;;;;;;;313.63;295.50;;;5.40;99.90;;;;;;5084408;28;20205;-79
2021/12/02 02:16:25;;;;;;;312.00;293.47;;;5.40;99.90;;;;;;5044301;28;20680;-80
2021/12/02 02:18:51;;;;;;;308.87;290.73;;;5.40;99.90;;;;;;5073530;28;20562;-80
2021/12/02 02:21:20;;;;;;;304.27;286.47;;;5.40;99.90;;;;;;5083842;28;20266;-80
2021/12/02 02:23:56;;;;;;;416.03;385.47;;;5.40;99.90;;;;;;5082764;28;20188;-80
2021/12/02 02:26:30;;;;;;;434.40;401.10;;;5.40;99.90;;;;;;5066432;28;20253;-80
2021/12/02 02:28:57;;;;;;;433.23;400.57;;;5.40;99.90;;;;;;5049998;28;20607;-81
2021/12/02 02:31:24;;;;;;;432.70;399.47;;;5.30;99.90;;;;;;5049101;28;20185;-81
2021/12/02 02:33:51;;;;;;;433.23;399.53;;;5.30;99.90;;;;;;5033161;28;20202;-80
2021/12/02 02:36:20;;;;;;;429.90;396.93;;;5.20;99.90;;;;;;5062062;28;20205;-81
2021/12/02 02:38:55;;;;;;;433.40;400.43;;;5.10;99.90;;;;;;5060979;28;20614;-81
2021/12/02 02:41:28;;;;;;;434.10;401.17;;;5.10;99.90;;;;;;5052514;28;20205;-80
2021/12/02 02:43:57;;;;;;;434.20;400.90;;;5.00;99.90;;;;;;5061679;28;20269;-80
2021/12/02 02:46:38;;;;;;;435.80;402.07;;;5.00;99.90;;;;;;5061557;28;20209;-80
2021/12/02 02:49:07;;;;;;;434.40;400.93;;;5.00;99.90;;;;;;5065724;28;20282;-80
2021/12/02 02:51:34;;;;;;;435.57;402.10;;;5.10;99.90;;;;;;5065765;28;20276;-81
2021/12/02 02:54:04;;;;;;;429.20;396.47;;;5.10;99.90;;;;;;5067108;28;20250;-80
2021/12/02 02:56:33;;;;;;;429.93;397.10;;;5.20;99.90;;;;;;5060096;28;20193;-80
2021/12/02 02:59:10;;;;;;;426.27;394.27;;;5.20;99.90;;;;;;5061741;28;20268;-81
2021/12/02 03:06:58;;;;;;;420.50;389.53;;;5.40;99.90;;;;;;5067216;28;20194;-79
2021/12/02 03:12:15;;;;;;;302.43;285.23;;;5.40;99.90;;;;;;5061227;28;20178;-81
2021/12/02 03:17:08;;;;;;;305.13;287.93;;;5.40;99.90;;;;;;5060479;28;20272;-80
2021/12/02 03:19:38;;;;;;;304.47;287.47;;;5.30;99.90;;;;;;5050143;28;20218;-82
2021/12/02 03:22:04;;;;;;;302.93;285.93;;;5.30;99.90;;;;;;5043050;28;20193;-80
2021/12/02 03:24:30;;;;;;;299.87;283.47;;;5.20;99.90;;;;;;5034060;28;20190;-80
2021/12/02 03:26:56;;;;;;;294.13;278.03;;;5.20;99.90;;;;;;5070582;28;20209;-79
2021/12/02 03:29:21;;;;;;;287.17;271.83;;;5.10;99.90;;;;;;5053997;28;20186;-80
2021/12/02 03:31:48;;;;;;;287.73;272.50;;;5.20;99.90;;;;;;5053547;28;20178;-81
2021/12/02 03:34:15;;;;;;;286.70;271.23;;;5.20;99.90;;;;;;5054476;28;20215;-80
2021/12/02 03:36:42;;;;;;;279.07;264.57;;;5.20;99.90;;;;;;5070558;28;20210;-80
2021/12/02 03:39:10;;;;;;;273.40;258.70;;;5.30;99.90;;;;;;5063967;28;20272;-81
2021/12/02 03:41:37;;;;;;;269.30;255.20;;;5.30;99.90;;;;;;5069829;28;20724;-79
2021/12/02 03:44:02;;;;;;;269.17;255.13;;;5.40;99.90;;;;;;5065759;28;20184;-81
2021/12/02 03:46:28;;;;;;;260.60;247.47;;;5.40;99.90;;;;;;5069536;28;21883;-80
2021/12/02 03:48:55;;;;;;;318.27;300.90;;;5.40;99.90;;;;;;5062201;28;20769;-79
2021/12/02 03:51:22;;;;;;;388.30;363.70;;;5.40;99.90;;;;;;5061526;28;20669;-80
2021/12/02 03:53:48;;;;;;;386.60;363.40;;;5.30;99.90;;;;;;5065977;28;20178;-81
2021/12/02 03:56:15;;;;;;;379.93;356.27;;;5.10;99.90;;;;;;5069256;28;20202;-81
2021/12/02 03:58:43;;;;;;;414.17;385.00;;;4.90;99.90;;;;;;5063889;28;20263;-80
2021/12/02 04:01:10;;;;;;;412.60;383.13;;;4.90;99.90;;;;;;5084060;28;20217;-79
2021/12/02 04:03:37;;;;;;;418.93;389.27;;;4.80;99.90;;;;;;5064999;28;20205;-82
2021/12/02 04:06:03;;;;;;;424.63;394.27;;;4.80;99.90;;;;;;5069677;28;20189;-80
2021/12/02 04:08:32;;;;;;;424.83;394.43;;;4.70;99.90;;;;;;5052322;28;20271;-80
2021/12/02 04:11:21;;;;;;;423.73;393.50;;;4.70;99.90;;;;;;5036859;28;20708;-81
2021/12/02 04:16:18;;;;;;;431.07;399.47;;;4.60;99.90;;;;;;5085548;28;20277;-81
2021/12/02 04:18:44;;;;;;;428.03;396.97;;;4.60;99.90;;;;;;5035723;28;20231;-81
2021/12/02 04:21:11;;;;;;;429.73;398.97;;;4.60;99.90;;;;;;5063759;28;20922;-81
2021/12/02 04:23:37;;;;;;;430.10;398.93;;;4.60;99.90;;;;;;5062872;28;20191;-79
2021/12/02 04:26:03;;;;;;;431.10;399.77;;;4.60;99.90;;;;;;5063522;28;20553;-80
2021/12/02 04:28:28;;;;;;;429.13;398.10;;;4.80;99.90;;;;;;5052988;28;20270;-81
2021/12/02 04:30:54;;;;;;;432.30;401.80;;;4.90;99.90;;;;;;5035840;28;20181;-80
2021/12/02 04:33:19;;;;;;;310.63;292.67;;;4.90;99.90;;;;;;5070428;28;20693;-81
2021/12/02 04:35:45;;;;;;;317.03;298.50;;;5.00;99.90;;;;;;5034709;28;20189;-81
2021/12/02 04:38:11;;;;;;;316.10;297.80;;;4.90;99.90;;;;;;5052118;28;20651;-81
2021/12/02 04:40:40;;;;;;;318.87;300.77;;;4.80;99.90;;;;;;5064143;28;20717;-81
2021/12/02 04:43:06;;;;;;;316.27;298.17;;;4.80;99.90;;;;;;5046935;28;20177;-80
2021/12/02 04:45:32;;;;;;;318.07;300.07;;;4.70;99.90;;;;;;5051817;28;20204;-79
2021/12/02 04:47:58;;;;;;;328.83;311.10;;;4.60;99.90;;;;;;5062547;28;20237;-81
2021/12/02 04:50:24;;;;;;;318.60;300.90;;;4.60;99.90;;;;;;5084390;28;20537;-79
2021/12/02 04:52:50;;;;;;;313.77;296.03;;;4.50;99.90;;;;;;5069306;28;20197;-81
2021/12/02 04:55:16;;;;;;;322.77;304.43;;;4.50;99.90;;;;;;5050960;28;20303;-81
2021/12/02 04:57:42;;;;;;;320.07;302.27;;;4.40;99.90;;;;;;5051883;28;20186;-81
2021/12/02 05:00:08;;;;;;;314.30;296.53;;;4.40;99.90;;;;;;5062653;28;20213;-80
2021/12/02 05:02:34;;;;;;;310.00;292.63;;;4.40;99.90;;;;;;5034860;28;20650;-80
2021/12/02 05:04:59;;;;;;;311.57;293.97;;;4.40;99.90;;;;;;5062555;28;20196;-81
2021/12/02 05:07:25;;;;;;;310.33;293.03;;;4.40;99.90;;;;;;5067599;28;20574;-80
2021/12/02 05:09:52;;;;;;;302.50;285.40;;;4.40;99.90;;;;;;5052281;28;20185;-80
2021/12/02 05:12:18;;;;;;;303.67;286.93;;;4.40;99.90;;;;;;5034702;28;20693;-80
2021/12/02 05:14:43;;;;;;;313.90;295.87;;;4.50;99.90;;;;;;5035300;28;20225;-80
2021/12/02 05:17:09;;;;;;;317.93;300.53;;;4.50;99.90;;;;;;5062863;28;20224;-80
2021/12/02 05:19:35;;;;;;;310.73;293.70;;;4.60;99.90;;;;;;5051583;28;20287;-81
2021/12/02 05:22:00;;;;;;;309.00;292.07;;;4.60;99.90;;;;;;5033066;28;20239;-81
2021/12/02 05:24:26;;;;;;;306.03;289.50;;;4.60;99.90;;;;;;5033860;28;20201;-82
2021/12/02 05:26:51;;;;;;;305.90;288.33;;;4.60;99.90;;;;;;5050805;28;20302;-80
2021/12/02 05:29:17;;;;;;;299.87;283.47;;;4.60;99.90;;;;;;5067578;28;20991;-80
2021/12/02 05:31:43;;;;;;;297.77;281.43;;;4.70;99.90;;;;;;5068126;28;20183;-80
2021/12/02 05:34:08;;;;;;;290.43;275.40;;;4.70;99.90;;;;;;5051003;28;20216;-81
2021/12/02 05:36:34;;;;;;;288.90;273.73;;;4.80;99.90;;;;;;5062476;28;20637;-80
2021/12/02 05:39:00;;;;;;;283.40;268.40;;;4.80;99.90;;;;;;5033210;28;20523;-80
2021/12/02 05:41:26;;;;;;;274.70;259.70;;;4.80;99.90;;;;;;5050365;28;20213;-80
2021/12/02 05:43:52;;;;;;;265.73;251.23;;;4.80;99.90;;;;;;5051753;28;20393;-82
2021/12/02 05:46:17;;;;;;;250.50;236.97;;;4.90;99.90;;;;;;5034288;28;20277;-81
2021/12/02 05:48:43;;;;;;;239.30;226.47;;;4.90;99.90;;;;;;5066597;28;20237;-81
2021/12/02 05:51:09;;;;;;;215.07;204.20;;;4.90;99.90;;;;;;5051137;28;20201;-81
2021/12/02 05:53:34;;;;;;;213.17;201.80;;;5.00;99.90;;;;;;5051617;28;20190;-80
2021/12/02 05:56:00;;;;;;;197.57;187.33;;;5.00;99.90;;;;;;5062234;28;20189;-81
2021/12/02 05:58:25;;;;;;;183.77;174.53;;;5.10;99.90;;;;;;5034779;28;20554;-80
2021/12/02 06:00:53;;;;;;;169.00;160.43;;;5.10;99.90;;;;;;5034783;28;20217;-81
2021/12/02 06:03:19;;;;;;;153.83;146.03;;;5.20;99.90;;;;;;5052176;28;20194;-81
2021/12/02 06:05:46;;;;;;;131.87;125.50;;;5.20;99.90;;;;;;5035689;28;20178;-80
2021/12/02 06:08:12;;;;;;;105.57;100.03;;;5.20;99.90;;;;;;5052203;28;20537;-81
2021/12/02 06:10:37;;;;;;;101.93;96.70;;;5.10;99.90;;;;;;5035800;28;20213;-82
2021/12/02 06:13:03;;;;;;;99.60;93.97;;;5.30;99.90;;;;;;5065028;28;20197;-80
2021/12/02 06:15:29;;;;;;;188.53;178.37;;;5.00;99.90;;;;;;5051865;28;20289;-82
2021/12/02 06:17:54;;;;;;;370.73;349.57;;;4.70;99.90;;;;;;5036265;28;20284;-81
2021/12/02 06:20:20;;;;;;;370.83;350.10;;;4.60;99.90;;;;;;5034686;28;20297;-81
2021/12/02 06:22:47;;;;;;;367.93;346.33;;;4.50;99.90;;;;;;5050332;28;20177;-81
2021/12/02 06:27:46;;;;;;;379.03;357.30;;;4.60;99.90;;;;;;5062461;28;20181;-82
2021/12/02 06:30:14;;;;;;;394.17;370.67;;;4.60;99.90;;;;;;5067188;28;20243;-82
2021/12/02 06:32:40;;;;;;;391.70;368.97;;;4.50;99.90;;;;;;5066011;28;20186;-82
2021/12/02 06:35:07;;;;;;;407.30;383.47;;;4.40;99.90;;;;;;5067342;28;20264;-82
2021/12/02 06:37:33;;;;;;;406.13;381.50;;;4.20;99.90;;;;;;5082121;28;20205;-80
2021/12/02 06:40:00;;;;;;;409.47;384.67;;;4.10;99.90;;;;;;5063777;28;20213;-79
2021/12/02 06:42:25;;;;;;;412.17;386.73;;;4.00;99.90;;;;;;5061238;28;20193;-80
2021/12/02 06:44:52;;;;;;;418.37;391.93;;;3.90;99.90;;;;;;5066810;28;20299;-81
2021/12/02 06:47:20;;;;;;;420.43;393.57;;;3.90;99.90;;;;;;5062543;28;20690;-80
2021/12/02 06:49:45;;;;;;;438.20;409.87;;;3.80;99.90;;;;;;5032793;28;20315;-80
2021/12/02 06:52:12;;;;;;;431.73;403.03;;;3.70;99.90;;;;;;5062324;28;20621;-81
2021/12/02 06:54:39;;;;;;;431.60;402.87;;;3.80;99.90;;;;;;5043907;28;20189;-81
2021/12/02 06:57:06;;;;;;;436.20;406.43;;;3.80;99.90;;;;;;5048218;28;20201;-80
2021/12/02 06:59:32;;;;;;;437.37;408.17;;;3.80;99.90;;;;;;5050758;28;20201;-80
2021/12/02 07:01:57;;;;;;;439.93;410.30;;;3.90;99.90;;;;;;5053822;28;20567;-81
2021/12/02 07:04:23;;;;;;;430.93;401.93;;;3.90;99.90;;;;;;5065459;28;20209;-80
2021/12/02 07:06:49;;;;;;;429.13;400.47;;;4.00;99.90;;;;;;5066846;28;20236;-81
2021/12/02 07:09:15;;;;;;;431.73;403.00;;;4.00;99.90;;;;;;5065622;28;20596;-81
2021/12/02 07:11:41;;;;;;;437.37;408.33;;;4.10;99.90;;;;;;5052810;28;20177;-81
2021/12/02 07:14:11;;;;;;;440.00;410.57;;;4.10;99.90;;;;;;5065797;28;20659;-81
2021/12/02 07:16:38;;;;;;;451.03;421.43;;;4.10;99.90;;;;;;5048060;28;20655;-81
2021/12/02 07:19:06;;;;;;;443.13;413.07;;;4.10;99.90;;;;;;5053398;28;20573;-82
2021/12/02 07:21:34;;;;;;;446.43;416.47;;;4.00;99.90;;;;;;5066298;28;20299;-82
2021/12/02 07:23:59;;;;;;;445.10;415.07;;;3.90;99.90;;;;;;5070712;28;20214;-81
2021/12/02 07:26:25;;;;;;;449.33;419.20;;;3.90;99.90;;;;;;5055323;28;20194;-80
2021/12/02 07:28:51;;;;;;;443.57;413.50;;;3.90;99.90;;;;;;5053435;28;20262;-80
2021/12/02 07:31:17;;;;;;;445.67;415.83;;;3.80;99.90;;;;;;5054588;28;20193;-81
2021/12/02 07:33:47;;;;;;;448.73;418.40;;;3.90;99.90;;;;;;5054646;28;20206;-81
2021/12/02 07:36:13;;;;;;;448.20;418.20;;;3.90;99.90;;;;;;5040346;28;20274;-80
2021/12/02 07:38:39;;;;;;;445.63;415.57;;;4.00;99.90;;;;;;5070284;28;20254;-81
2021/12/02 07:41:05;;;;;;;451.63;421.77;;;4.00;99.90;;;;;;5064346;28;20236;-80
2021/12/02 07:43:38;;;;;;;446.67;416.40;;;4.00;99.90;;;;;;5063851;28;20186;-83
2021/12/02 07:46:05;;;;;;;439.20;409.23;;;4.00;99.90;;;;;;5085202;28;20599;-80
2021/12/02 07:48:31;;;;;;;443.30;412.37;;;4.00;99.90;;;;;;5067069;28;20294;-81
2021/12/02 07:51:02;;;;;;;451.20;420.20;;;4.00;99.90;;;;;;5052503;28;20281;-82
2021/12/02 07:53:28;;;;;;;454.70;423.30;;;4.00;99.90;;;;;;5062293;28;20282;-82
2021/12/02 07:55:56;;;;;;;454.00;422.77;;;4.00;99.90;;;;;;5063862;28;20622;-82
2021/12/02 07:58:24;;;;;;;475.07;442.53;;;3.90;99.90;;;;;;5070475;28;20224;-81
2021/12/02 08:00:50;;;;;;;454.47;422.57;;;3.90;99.90;;;;;;5065685;28;20553;-82
2021/12/02 08:03:17;;;;;;;470.97;439.03;;;3.90;99.90;;;;;;5053341;28;20193;-82
2021/12/02 08:05:43;;;;;;;458.97;426.77;;;3.80;99.90;;;;;;5064255;28;20247;-81
2021/12/02 08:08:10;;;;;;;464.57;431.33;;;3.80;99.90;;;;;;5065935;28;20181;-82
2021/12/02 08:10:36;;;;;;;468.80;435.30;;;3.90;99.90;;;;;;5064173;28;20201;-82
2021/12/02 08:13:03;;;;;;;474.03;440.80;;;3.80;99.90;;;;;;5048559;28;20209;-80
2021/12/02 08:15:30;;;;;;;468.07;434.90;;;3.90;99.90;;;;;;5051855;28;20212;-81
2021/12/02 08:17:57;;;;;;;471.20;437.93;;;3.80;99.90;;;;;;5042354;28;20250;-81
2021/12/02 08:20:25;;;;;;;465.40;433.30;;;3.90;99.90;;;;;;5067819;28;20227;-81
2021/12/02 08:22:52;;;;;;;450.43;419.23;;;4.00;99.90;;;;;;5062818;28;20560;-80
2021/12/02 08:25:21;;;;;;;453.40;422.10;;;4.10;99.90;;;;;;5050531;28;20221;-81
2021/12/02 08:27:48;;;;;;;456.27;425.03;;;4.20;99.90;;;;;;5061377;28;20191;-80
2021/12/02 08:30:16;;;;;;;461.13;429.73;;;4.30;99.90;;;;;;5061832;28;20190;-81
2021/12/02 08:32:43;;;;;;;445.87;414.87;;;4.20;99.90;;;;;;5063488;28;20248;-80
2021/12/02 08:35:10;;;;;;;450.07;418.87;;;4.20;99.90;;;;;;5051889;28;20596;-82
2021/12/02 08:37:40;;;;;;;448.77;417.87;;;4.20;99.90;;;;;;5060545;28;20209;-81
2021/12/02 08:40:07;;;;;;;448.23;417.60;;;4.10;99.90;;;;;;5052996;28;20637;-80
2021/12/02 08:42:33;;;;;;;442.40;412.40;;;4.10;99.90;;;;;;5034429;28;20182;-81
2021/12/02 08:45:00;;;;;;;446.10;416.13;;;4.20;99.90;;;;;;5048416;28;20257;-81
2021/12/02 08:47:27;;;;;;;446.17;416.83;;;4.20;99.90;;;;;;5066454;28;20197;-82
2021/12/02 08:49:54;;;;;;;440.80;411.07;;;4.20;99.90;;;;;;5036906;28;20214;-80
2021/12/02 08:52:22;;;;;;;433.23;404.47;;;4.20;99.90;;;;;;5063848;28;20302;-82
2021/12/02 08:54:51;;;;;;;431.00;401.93;;;4.20;99.90;;;;;;5065524;28;20289;-81
2021/12/02 08:57:18;;;;;;;435.97;406.80;;;4.30;99.90;;;;;;5063491;28;20197;-83
2021/12/02 08:59:44;;;;;;;438.60;410.00;;;4.20;99.90;;;;;;5062169;28;20206;-80
2021/12/02 09:02:11;;;;;;;428.83;399.83;;;4.30;99.90;;;;;;5051608;28;20191;-80
2021/12/02 09:04:38;;;;;;;430.37;401.57;;;4.30;99.90;;;;;;5053161;28;20217;-81
2021/12/02 09:07:05;;;;;;;430.17;401.90;;;4.40;99.90;;;;;;5062927;28;20197;-80
2021/12/02 09:09:30;;;;;;;430.43;401.57;;;4.30;99.90;;;;;;5062377;28;20188;-81
2021/12/02 09:11:57;;;;;;;432.10;403.47;;;4.40;99.90;;;;;;5062640;28;20190;-81
2021/12/02 09:14:23;;;;;;;431.87;403.57;;;4.30;99.90;;;;;;5044795;28;20663;-82
2021/12/02 09:16:50;;;;;;;438.43;409.90;;;4.30;99.90;;;;;;5052067;28;20217;-81
2021/12/02 09:19:17;;;;;;;430.63;402.30;;;4.30;99.90;;;;;;5051595;28;20205;-82
2021/12/02 09:21:43;;;;;;;313.77;295.23;;;4.30;99.90;;;;;;5062282;28;20209;-81
2021/12/02 09:24:18;;;;;;;305.40;288.03;;;4.30;99.90;;;;;;5050573;28;20192;-81
2021/12/02 09:26:44;;;;;;;290.93;274.13;;;4.40;99.90;;;;;;5084265;28;20262;-82
2021/12/02 09:29:09;;;;;;;288.07;271.77;;;4.60;99.90;;;;;;5051538;28;20190;-80
2021/12/02 09:31:35;;;;;;;284.83;269.00;;;4.80;99.90;;;;;;5034653;28;20814;-81
2021/12/02 09:34:00;;;;;;;289.93;273.37;;;4.90;99.90;;;;;;5049471;28;20604;-81
2021/12/02 09:36:26;;;;;;;286.73;270.90;;;5.10;99.90;;;;;;5049495;28;20209;-81
2021/12/02 09:38:52;;;;;;;285.13;269.43;;;5.10;99.90;;;;;;5033225;28;20564;-80
2021/12/02 09:41:17;;;;;;;205.10;194.10;;;5.20;99.90;;;;;;5051008;28;20206;-81
2021/12/02 09:43:43;;;;;;;221.93;210.13;;;6.10;99.90;;;;;;5050017;28;20194;-81
2021/12/02 09:46:09;;;;;;;244.40;231.57;;;6.90;99.90;;;;;;5066699;28;20195;-81
2021/12/02 09:48:36;;;;;;;263.80;250.20;;;7.00;99.90;;;;;;5059788;28;20236;-80
2021/12/02 09:51:06;;;;;;;267.80;254.00;;;6.80;99.90;;;;;;5065836;28;20228;-79
2021/12/02 09:53:38;;;;;;;265.90;252.80;;;6.50;99.90;;;;;;5077211;28;20228;-82
2021/12/02 09:58:35;;;;;;;265.10;251.77;;;6.00;99.90;;;;;;5067501;28;20198;-82
2021/12/02 10:01:08;;;;;;;256.23;243.67;;;5.80;99.90;;;;;;5033413;28;20258;-81
2021/12/02 10:03:37;;;;;;;257.83;245.33;;;5.70;99.90;;;;;;5051384;28;20532;-81
2021/12/02 10:06:05;;;;;;;247.80;235.90;;;5.60;99.90;;;;;;5061342;28;20557;-80
2021/12/02 10:08:39;;;;;;;243.83;232.07;;;5.60;99.90;;;;;;5067250;28;20273;-80
2021/12/02 10:11:12;;;;;;;231.23;219.83;;;5.60;99.90;;;;;;5059999;28;20198;-81
2021/12/02 10:13:46;;;;;;;231.43;220.30;;;5.70;99.90;;;;;;5066555;28;20186;-80
2021/12/02 10:16:23;;;;;;;234.13;222.73;;;5.70;99.90;;;;;;5062073;28;20205;-81
2021/12/02 10:18:57;;;;;;;227.73;217.03;;;5.60;99.90;;;;;;5065824;28;20204;-80
2021/12/02 10:21:29;;;;;;;225.77;214.70;;;5.60;99.90;;;;;;5067013;28;20209;-79
2021/12/02 10:24:00;;;;;;;212.37;201.97;;;5.70;99.90;;;;;;5079147;28;20260;-80
2021/12/02 10:26:25;;;;;;;181.83;172.70;;;5.90;99.90;;;;;;5076614;28;20239;-81
2021/12/02 10:28:52;;;;;;;182.80;173.77;;;6.30;99.90;;;;;;5049134;28;20198;-82
2021/12/02 10:31:24;;;;;;;321.73;305.97;;;6.60;99.90;;;;;;5033542;28;20197;-81
2021/12/02 10:33:54;;;;;;;378.90;359.33;;;6.50;99.90;;;;;;5081100;28;20210;-81
2021/12/02 10:36:31;;;;;;;397.43;374.73;;;6.20;99.90;;;;;;5065718;28;20655;-81
2021/12/02 10:39:05;;;;;;;400.87;377.90;;;5.80;99.90;;;;;;5060726;28;20314;-80
2021/12/02 10:41:31;;;;;;;409.33;384.93;;;5.50;99.90;;;;;;5066252;28;20204;-82
2021/12/02 10:44:17;;;;;;;412.30;387.87;;;5.30;99.90;;;;;;5044481;28;20204;-81
2021/12/02 10:47:00;;;;;;;408.93;383.60;;;5.10;99.90;;;;;;5062820;28;20654;-81
2021/12/02 10:49:45;;;;;;;413.33;387.13;;;5.00;99.90;;;;;;5062463;28;20341;-81
2021/12/02 10:52:32;;;;;;;423.10;396.50;;;5.00;99.90;;;;;;5051021;28;20196;-81
2021/12/02 10:55:15;;;;;;;422.27;395.37;;;4.80;99.90;;;;;;5062337;28;20243;-81
2021/12/02 10:57:55;;;;;;;428.07;400.47;;;4.60;99.90;;;;;;5059267;28;20242;-81
2021/12/02 11:00:24;;;;;;;435.70;407.33;;;4.50;99.90;;;;;;5082948;28;20266;-81
2021/12/02 11:02:55;;;;;;;443.10;414.07;;;4.40;99.90;;;;;;5067316;28;20241;-82
2021/12/02 11:05:31;;;;;;;445.17;416.10;;;4.20;99.90;;;;;;5063892;28;20198;-81
2021/12/02 11:08:08;;;;;;;453.87;423.87;;;4.00;99.90;;;;;;5067865;28;20177;-81
2021/12/02 11:10:39;;;;;;;463.93;433.10;;;3.80;99.90;;;;;;5067679;28;20280;-82
2021/12/02 11:13:06;;;;;;;464.83;433.27;;;3.70;99.90;;;;;;5066595;28;20215;-82
2021/12/02 11:15:33;;;;;;;473.43;441.00;;;3.60;99.90;;;;;;5068160;28;20288;-81
2021/12/02 11:18:02;;;;;;;483.37;450.13;;;3.60;99.90;;;;;;5051382;28;20194;-82
2021/12/02 11:20:31;;;;;;;482.07;448.07;;;3.50;99.90;;;;;;5060277;28;21052;-83
2021/12/02 11:23:19;;;;;;;487.83;453.30;;;3.60;99.90;;;;;;5062371;28;20186;-80
2021/12/02 11:25:58;;;;;;;479.93;445.43;;;3.50;99.90;;;;;;5061158;28;20214;-81
2021/12/02 11:28:30;;;;;;;480.80;446.33;;;3.50;99.90;;;;;;5067214;28;20613;-82
2021/12/02 11:30:58;;;;;;;498.27;462.47;;;3.60;99.90;;;;;;5061441;28;20271;-80
2021/12/02 11:33:36;;;;;;;519.90;483.60;;;3.70;99.90;;;;;;5048816;28;20194;-82
2021/12/02 11:36:03;;;;;;;499.53;463.00;;;3.80;99.90;;;;;;5059914;28;20217;-81
2021/12/02 11:38:30;;;;;;;506.40;469.67;;;3.90;99.90;;;;;;5044201;28;20446;-80
2021/12/02 11:40:58;;;;;;;510.67;473.73;;;4.00;99.90;;;;;;5051578;28;20304;-81
2021/12/02 11:43:27;;;;;;;513.03;475.93;;;4.10;99.90;;;;;;5067621;28;20197;-81
2021/12/02 11:45:56;;;;;;;517.53;480.23;;;4.20;99.90;;;;;;5047431;28;20202;-80
2021/12/02 11:48:24;;;;;;;532.37;494.60;;;4.30;99.90;;;;;;5062224;28;20240;-82
2021/12/02 11:50:53;;;;;;;518.67;480.80;;;4.30;99.90;;;;;;5066048;28;20261;-81
2021/12/02 11:53:22;;;;;;;524.07;486.37;;;4.30;99.90;;;;;;5061715;28;20900;-81
2021/12/02 11:55:52;;;;;;;531.90;493.80;;;4.40;99.90;;;;;;5053380;28;20197;-80
2021/12/02 11:58:18;;;;;;;514.23;477.60;;;4.40;99.90;;;;;;5063574;28;20184;-81
2021/12/02 12:00:46;;;;;;;506.17;470.20;;;4.50;99.90;;;;;;5054128;28;20351;-82
2021/12/02 12:03:15;;;;;;;503.03;467.60;;;4.60;99.90;;;;;;5081573;28;20196;-81
2021/12/02 12:05:52;;;;;;;494.37;459.73;;;4.60;99.90;;;;;;5086215;28;20216;-82
2021/12/02 12:08:36;;;;;;;502.73;467.60;;;4.50;99.90;;;;;;5078180;28;20197;-82
2021/12/02 12:11:25;;;;;;;496.23;461.77;;;4.50;99.90;;;;;;5065333;28;20211;-81
2021/12/02 12:14:09;;;;;;;494.50;460.43;;;4.40;99.90;;;;;;5084910;28;20195;-82
2021/12/02 12:16:51;;;;;;;486.70;452.37;;;4.30;99.90;;;;;;5062236;28;20212;-82
2021/12/02 12:19:29;;;;;;;398.47;373.03;;;4.20;99.90;;;;;;5069521;28;20251;-79
2021/12/02 12:22:01;;;;;;;393.70;367.73;;;4.20;99.90;;;;;;5063566;28;20209;-81
2021/12/02 12:24:49;;;;;;;387.63;363.70;;;4.20;99.90;;;;;;5063976;28;21343;-80
2021/12/02 12:27:22;;;;;;;387.50;363.27;;;4.30;99.90;;;;;;5053475;28;20198;-82
2021/12/02 12:30:11;;;;;;;383.13;359.23;;;4.40;99.90;;;;;;5064972;28;20220;-82
2021/12/02 12:35:13;;;;;;;365.83;343.47;;;4.40;99.90;;;;;;5067451;28;20207;-82
2021/12/02 12:40:18;;;;;;;351.37;329.40;;;4.40;99.90;;;;;;5063536;28;20236;-81
2021/12/02 12:42:47;;;;;;;343.77;323.07;;;4.40;99.90;;;;;;5083614;28;20186;-81
2021/12/02 12:45:31;;;;;;;331.50;311.33;;;4.40;99.90;;;;;;5064226;28;20236;-81
2021/12/02 12:48:03;;;;;;;327.87;307.97;;;4.40;99.90;;;;;;5087786;28;20233;-81
2021/12/02 12:50:44;;;;;;;319.60;299.93;;;4.50;99.90;;;;;;5065203;28;20240;-81
2021/12/02 12:53:15;;;;;;;304.77;286.97;;;4.60;99.90;;;;;;5068553;28;20272;-81
2021/12/02 12:56:02;;;;;;;303.80;285.87;;;4.70;99.90;;;;;;5070929;28;20185;-81